sensor_id;sensor_type;location;lat;lon;timestamp;temperature;humidity
24904;DHT22;12960;50.322;11.124;2022-07-18T00:00:51;16.30;1.00
24904;DHT22;12960;50.322;11.124;2022-07-18T00:01:58;16.40;1.00
24904;DHT22;12960;50.322;11.124;2022-07-18T00:02:59;16.40;1.00
24904;DHT22;12960;50.322;11.124;2022-07-18T00:04:01;16.40;1.00
24904;DHT22;12960;50.322;11.124;2022-07-18T00:05:03;16.40;1.00
24904;DHT22;12960;50.322;11.124;2022-07-18T00:06:07;16.40;1.00
24904;DHT22;12960;50.322;11.124;2022-07-18T00:07:08;16.30;1.00
24904;DHT22;12960;50.322;11.124;2022-07-18T00:08:11;16.30;1.00
24904;DHT22;12960;50.322;11.124;2022-07-18T00:09:12;16.20;1.00
24904;DHT22;12960;50.322;11.124;2022-07-18T00:10:13;16.30;1.00
24904;DHT22;12960;50.322;11.124;2022-07-18T00:11:15;16.30;1.00
24904;DHT22;12960;50.322;11.124;2022-07-18T00:12:16;16.30;1.00
24904;DHT22;12960;50.322;11.124;2022-07-18T00:13:17;16.10;1.00
24904;DHT22;12960;50.322;11.124;2022-07-18T00:14:19;16.10;1.00
24904;DHT22;12960;50.322;11.124;2022-07-18T00:15:23;16.00;1.00
24904;DHT22;12960;50.322;11.124;2022-07-18T00:16:24;15.90;1.00
24904;DHT22;12960;50.322;11.124;2022-07-18T00:17:25;15.80;1.00
24904;DHT22;12960;50.322;11.124;2022-07-18T00:18:26;15.80;1.00
24904;DHT22;12960;50.322;11.124;2022-07-18T00:19:28;15.70;1.00
24904;DHT22;12960;50.322;11.124;2022-07-18T00:20:30;15.70;1.00
24904;DHT22;12960;50.322;11.124;2022-07-18T00:21:34;15.70;1.00
24904;DHT22;12960;50.322;11.124;2022-07-18T00:22:35;15.70;1.00
24904;DHT22;12960;50.322;11.124;2022-07-18T00:23:39;15.70;1.00
24904;DHT22;12960;50.322;11.124;2022-07-18T00:24:40;15.70;1.00
24904;DHT22;12960;50.322;11.124;2022-07-18T00:25:44;15.70;1.00
24904;DHT22;12960;50.322;11.124;2022-07-18T00:26:45;15.70;1.00
24904;DHT22;12960;50.322;11.124;2022-07-18T00:27:49;15.60;1.00
24904;DHT22;12960;50.322;11.124;2022-07-18T00:28:53;15.60;1.00
24904;DHT22;12960;50.322;11.124;2022-07-18T00:29:54;15.60;1.00
24904;DHT22;12960;50.322;11.124;2022-07-18T00:30:55;15.70;1.00
24904;DHT22;12960;50.322;11.124;2022-07-18T00:31:56;15.70;1.00
24904;DHT22;12960;50.322;11.124;2022-07-18T00:33:00;15.70;1.00
24904;DHT22;12960;50.322;11.124;2022-07-18T00:34:02;15.60;1.00
24904;DHT22;12960;50.322;11.124;2022-07-18T00:35:03;15.60;1.00
24904;DHT22;12960;50.322;11.124;2022-07-18T00:36:04;15.60;1.00
24904;DHT22;12960;50.322;11.124;2022-07-18T00:37:06;15.60;1.00
24904;DHT22;12960;50.322;11.124;2022-07-18T00:38:07;15.50;1.00
24904;DHT22;12960;50.322;11.124;2022-07-18T00:39:08;15.50;1.00
24904;DHT22;12960;50.322;11.124;2022-07-18T00:40:09;15.50;1.00
24904;DHT22;12960;50.322;11.124;2022-07-18T00:41:16;15.40;1.00
24904;DHT22;12960;50.322;11.124;2022-07-18T00:42:18;15.40;1.00
24904;DHT22;12960;50.322;11.124;2022-07-18T00:43:23;15.40;1.00
24904;DHT22;12960;50.322;11.124;2022-07-18T00:44:26;15.30;1.00
24904;DHT22;12960;50.322;11.124;2022-07-18T00:45:29;15.30;1.00
24904;DHT22;12960;50.322;11.124;2022-07-18T00:46:30;15.20;1.00
24904;DHT22;12960;50.322;11.124;2022-07-18T00:47:31;15.10;1.00
24904;DHT22;12960;50.322;11.124;2022-07-18T00:48:32;15.20;1.00
24904;DHT22;12960;50.322;11.124;2022-07-18T00:49:39;15.20;1.00
24904;DHT22;12960;50.322;11.124;2022-07-18T00:50:41;15.30;1.00
24904;DHT22;12960;50.322;11.124;2022-07-18T00:51:42;15.20;1.00
24904;DHT22;12960;50.322;11.124;2022-07-18T00:52:44;15.20;1.00
24904;DHT22;12960;50.322;11.124;2022-07-18T00:53:45;15.10;1.00
24904;DHT22;12960;50.322;11.124;2022-07-18T00:54:46;15.10;1.00
24904;DHT22;12960;50.322;11.124;2022-07-18T00:55:47;15.10;1.00
24904;DHT22;12960;50.322;11.124;2022-07-18T00:56:50;15.10;1.00
24904;DHT22;12960;50.322;11.124;2022-07-18T00:57:55;15.10;1.00
24904;DHT22;12960;50.322;11.124;2022-07-18T00:58:57;15.00;1.00
24904;DHT22;12960;50.322;11.124;2022-07-18T00:59:58;15.00;1.00
24904;DHT22;12960;50.322;11.124;2022-07-18T01:01:18;14.90;1.00
24904;DHT22;12960;50.322;11.124;2022-07-18T01:02:38;14.90;1.00
24904;DHT22;12960;50.322;11.124;2022-07-18T01:03:40;14.90;1.00
24904;DHT22;12960;50.322;11.124;2022-07-18T01:04:41;15.00;1.00
24904;DHT22;12960;50.322;11.124;2022-07-18T01:05:42;14.90;1.00
24904;DHT22;12960;50.322;11.124;2022-07-18T01:06:44;14.90;1.00
24904;DHT22;12960;50.322;11.124;2022-07-18T01:07:45;14.80;1.00
24904;DHT22;12960;50.322;11.124;2022-07-18T01:08:49;14.80;1.00
24904;DHT22;12960;50.322;11.124;2022-07-18T01:09:50;14.80;1.00
24904;DHT22;12960;50.322;11.124;2022-07-18T01:10:51;14.80;1.00
24904;DHT22;12960;50.322;11.124;2022-07-18T01:11:54;14.70;1.00
24904;DHT22;12960;50.322;11.124;2022-07-18T01:12:56;14.60;1.00
24904;DHT22;12960;50.322;11.124;2022-07-18T01:13:57;14.60;1.00
24904;DHT22;12960;50.322;11.124;2022-07-18T01:14:58;14.50;1.00
24904;DHT22;12960;50.322;11.124;2022-07-18T01:15:59;14.50;1.00
24904;DHT22;12960;50.322;11.124;2022-07-18T01:17:00;14.50;1.00
24904;DHT22;12960;50.322;11.124;2022-07-18T01:18:01;14.40;1.00
24904;DHT22;12960;50.322;11.124;2022-07-18T01:19:03;14.40;1.00
24904;DHT22;12960;50.322;11.124;2022-07-18T01:20:05;14.40;1.00
24904;DHT22;12960;50.322;11.124;2022-07-18T01:21:06;14.40;1.00
24904;DHT22;12960;50.322;11.124;2022-07-18T01:22:07;14.30;1.00
24904;DHT22;12960;50.322;11.124;2022-07-18T01:23:08;14.30;1.00
24904;DHT22;12960;50.322;11.124;2022-07-18T01:24:09;14.30;1.00
24904;DHT22;12960;50.322;11.124;2022-07-18T01:25:11;14.20;1.00
24904;DHT22;12960;50.322;11.124;2022-07-18T01:26:14;14.20;1.00
24904;DHT22;12960;50.322;11.124;2022-07-18T01:27:16;14.20;1.00
24904;DHT22;12960;50.322;11.124;2022-07-18T01:28:17;14.10;1.00
24904;DHT22;12960;50.322;11.124;2022-07-18T01:29:19;14.20;1.00
24904;DHT22;12960;50.322;11.124;2022-07-18T01:30:24;14.10;1.00
24904;DHT22;12960;50.322;11.124;2022-07-18T01:31:25;14.10;1.00
24904;DHT22;12960;50.322;11.124;2022-07-18T01:32:26;14.10;1.00
24904;DHT22;12960;50.322;11.124;2022-07-18T01:33:32;14.00;1.00
24904;DHT22;12960;50.322;11.124;2022-07-18T01:34:34;14.00;1.00
24904;DHT22;12960;50.322;11.124;2022-07-18T01:35:38;13.90;1.00
24904;DHT22;12960;50.322;11.124;2022-07-18T01:36:39;13.90;1.00
24904;DHT22;12960;50.322;11.124;2022-07-18T01:37:40;13.90;1.00
24904;DHT22;12960;50.322;11.124;2022-07-18T01:38:41;13.90;1.00
24904;DHT22;12960;50.322;11.124;2022-07-18T01:39:43;13.90;1.00
24904;DHT22;12960;50.322;11.124;2022-07-18T01:40:44;13.90;1.00
24904;DHT22;12960;50.322;11.124;2022-07-18T01:41:59;13.90;1.00
24904;DHT22;12960;50.322;11.124;2022-07-18T01:43:01;13.90;1.00
24904;DHT22;12960;50.322;11.124;2022-07-18T01:44:02;13.90;1.00
24904;DHT22;12960;50.322;11.124;2022-07-18T01:45:04;13.90;1.00
24904;DHT22;12960;50.322;11.124;2022-07-18T01:46:05;13.90;1.00
24904;DHT22;12960;50.322;11.124;2022-07-18T01:47:08;13.90;1.00
24904;DHT22;12960;50.322;11.124;2022-07-18T01:48:10;13.90;1.00
24904;DHT22;12960;50.322;11.124;2022-07-18T01:49:11;13.90;1.00
24904;DHT22;12960;50.322;11.124;2022-07-18T01:50:13;13.90;1.00
24904;DHT22;12960;50.322;11.124;2022-07-18T01:51:14;13.90;1.00
24904;DHT22;12960;50.322;11.124;2022-07-18T01:52:15;14.00;1.00
24904;DHT22;12960;50.322;11.124;2022-07-18T01:53:16;14.00;1.00
24904;DHT22;12960;50.322;11.124;2022-07-18T01:54:24;14.10;1.00
24904;DHT22;12960;50.322;11.124;2022-07-18T01:55:26;14.10;1.00
24904;DHT22;12960;50.322;11.124;2022-07-18T01:56:27;14.10;1.00
24904;DHT22;12960;50.322;11.124;2022-07-18T01:57:28;14.10;1.00
24904;DHT22;12960;50.322;11.124;2022-07-18T01:58:29;14.00;1.00
24904;DHT22;12960;50.322;11.124;2022-07-18T01:59:30;13.90;1.00
24904;DHT22;12960;50.322;11.124;2022-07-18T02:00:32;13.80;1.00
24904;DHT22;12960;50.322;11.124;2022-07-18T02:01:33;13.80;1.00
24904;DHT22;12960;50.322;11.124;2022-07-18T02:02:34;13.80;1.00
24904;DHT22;12960;50.322;11.124;2022-07-18T02:03:35;13.70;1.00
24904;DHT22;12960;50.322;11.124;2022-07-18T02:04:36;13.60;1.00
24904;DHT22;12960;50.322;11.124;2022-07-18T02:05:55;13.50;1.00
24904;DHT22;12960;50.322;11.124;2022-07-18T02:06:56;13.50;1.00
24904;DHT22;12960;50.322;11.124;2022-07-18T02:07:57;13.50;1.00
24904;DHT22;12960;50.322;11.124;2022-07-18T02:08:59;13.50;1.00
24904;DHT22;12960;50.322;11.124;2022-07-18T02:10:01;13.50;1.00
24904;DHT22;12960;50.322;11.124;2022-07-18T02:11:03;13.50;1.00
24904;DHT22;12960;50.322;11.124;2022-07-18T02:12:04;13.50;1.00
24904;DHT22;12960;50.322;11.124;2022-07-18T02:13:05;13.50;1.00
24904;DHT22;12960;50.322;11.124;2022-07-18T02:14:06;13.60;1.00
24904;DHT22;12960;50.322;11.124;2022-07-18T02:15:09;13.60;1.00
24904;DHT22;12960;50.322;11.124;2022-07-18T02:16:10;13.60;20.20
24904;DHT22;12960;50.322;11.124;2022-07-18T02:17:11;13.50;1.00
24904;DHT22;12960;50.322;11.124;2022-07-18T02:18:12;13.50;1.00
24904;DHT22;12960;50.322;11.124;2022-07-18T02:19:13;13.50;1.00
24904;DHT22;12960;50.322;11.124;2022-07-18T02:20:14;13.50;1.00
24904;DHT22;12960;50.322;11.124;2022-07-18T02:21:16;13.50;1.00
24904;DHT22;12960;50.322;11.124;2022-07-18T02:22:17;13.50;1.00
24904;DHT22;12960;50.322;11.124;2022-07-18T02:23:18;13.50;1.00
24904;DHT22;12960;50.322;11.124;2022-07-18T02:24:19;13.50;1.00
24904;DHT22;12960;50.322;11.124;2022-07-18T02:25:20;13.50;28.50
24904;DHT22;12960;50.322;11.124;2022-07-18T02:26:21;13.50;40.00
24904;DHT22;12960;50.322;11.124;2022-07-18T02:27:23;13.40;9.10
24904;DHT22;12960;50.322;11.124;2022-07-18T02:28:24;13.40;17.70
24904;DHT22;12960;50.322;11.124;2022-07-18T02:29:25;13.40;1.00
24904;DHT22;12960;50.322;11.124;2022-07-18T02:30:26;13.30;41.00
24904;DHT22;12960;50.322;11.124;2022-07-18T02:31:27;13.30;43.20
24904;DHT22;12960;50.322;11.124;2022-07-18T02:32:28;13.30;32.10
24904;DHT22;12960;50.322;11.124;2022-07-18T02:33:29;13.20;39.70
24904;DHT22;12960;50.322;11.124;2022-07-18T02:34:30;13.20;46.90
24904;DHT22;12960;50.322;11.124;2022-07-18T02:35:31;13.10;97.20
24904;DHT22;12960;50.322;11.124;2022-07-18T02:36:32;13.00;99.90
24904;DHT22;12960;50.322;11.124;2022-07-18T02:37:34;13.00;99.90
24904;DHT22;12960;50.322;11.124;2022-07-18T02:38:35;13.00;15.40
24904;DHT22;12960;50.322;11.124;2022-07-18T02:39:36;13.00;33.70
24904;DHT22;12960;50.322;11.124;2022-07-18T02:40:37;13.00;1.00
24904;DHT22;12960;50.322;11.124;2022-07-18T02:41:38;13.00;1.00
24904;DHT22;12960;50.322;11.124;2022-07-18T02:42:40;13.00;12.80
24904;DHT22;12960;50.322;11.124;2022-07-18T02:43:41;12.90;1.00
24904;DHT22;12960;50.322;11.124;2022-07-18T02:44:42;12.90;1.00
24904;DHT22;12960;50.322;11.124;2022-07-18T02:45:43;12.90;6.30
24904;DHT22;12960;50.322;11.124;2022-07-18T02:46:44;12.90;26.30
24904;DHT22;12960;50.322;11.124;2022-07-18T02:47:45;12.80;16.50
24904;DHT22;12960;50.322;11.124;2022-07-18T02:48:46;12.80;36.50
24904;DHT22;12960;50.322;11.124;2022-07-18T02:49:47;12.80;23.10
24904;DHT22;12960;50.322;11.124;2022-07-18T02:50:48;12.70;43.80
24904;DHT22;12960;50.322;11.124;2022-07-18T02:51:49;12.70;84.80
24904;DHT22;12960;50.322;11.124;2022-07-18T02:52:50;12.80;91.00
24904;DHT22;12960;50.322;11.124;2022-07-18T02:53:51;12.80;73.20
24904;DHT22;12960;50.322;11.124;2022-07-18T02:54:52;12.80;99.90
24904;DHT22;12960;50.322;11.124;2022-07-18T02:55:53;12.80;68.50
24904;DHT22;12960;50.322;11.124;2022-07-18T02:56:54;12.80;77.30
24904;DHT22;12960;50.322;11.124;2022-07-18T02:57:56;12.80;99.90
24904;DHT22;12960;50.322;11.124;2022-07-18T02:58:57;12.90;99.90
24904;DHT22;12960;50.322;11.124;2022-07-18T02:59:58;13.00;99.90
24904;DHT22;12960;50.322;11.124;2022-07-18T03:00:59;13.00;99.90
24904;DHT22;12960;50.322;11.124;2022-07-18T03:02:00;13.00;99.90
24904;DHT22;12960;50.322;11.124;2022-07-18T03:03:01;13.00;80.00
24904;DHT22;12960;50.322;11.124;2022-07-18T03:04:02;12.90;92.90
24904;DHT22;12960;50.322;11.124;2022-07-18T03:05:04;13.00;1.00
24904;DHT22;12960;50.322;11.124;2022-07-18T03:06:06;13.10;99.90
24904;DHT22;12960;50.322;11.124;2022-07-18T03:07:07;13.10;99.90
24904;DHT22;12960;50.322;11.124;2022-07-18T03:08:08;13.20;99.90
24904;DHT22;12960;50.322;11.124;2022-07-18T03:09:09;13.10;99.90
24904;DHT22;12960;50.322;11.124;2022-07-18T03:10:10;13.10;94.30
24904;DHT22;12960;50.322;11.124;2022-07-18T03:11:11;13.10;79.10
24904;DHT22;12960;50.322;11.124;2022-07-18T03:12:12;13.10;87.70
24904;DHT22;12960;50.322;11.124;2022-07-18T03:13:13;13.10;75.80
24904;DHT22;12960;50.322;11.124;2022-07-18T03:14:14;13.10;94.00
24904;DHT22;12960;50.322;11.124;2022-07-18T03:15:15;13.10;99.90
24904;DHT22;12960;50.322;11.124;2022-07-18T03:16:16;13.00;95.90
24904;DHT22;12960;50.322;11.124;2022-07-18T03:17:17;13.00;40.90
24904;DHT22;12960;50.322;11.124;2022-07-18T03:18:18;12.90;52.00
24904;DHT22;12960;50.322;11.124;2022-07-18T03:19:20;13.00;78.10
24904;DHT22;12960;50.322;11.124;2022-07-18T03:20:21;12.90;35.50
24904;DHT22;12960;50.322;11.124;2022-07-18T03:21:22;12.90;13.50
24904;DHT22;12960;50.322;11.124;2022-07-18T03:22:23;12.90;58.70
24904;DHT22;12960;50.322;11.124;2022-07-18T03:23:24;12.80;59.70
24904;DHT22;12960;50.322;11.124;2022-07-18T03:24:25;12.80;77.60
24904;DHT22;12960;50.322;11.124;2022-07-18T03:25:32;12.80;64.70
24904;DHT22;12960;50.322;11.124;2022-07-18T03:26:33;12.90;49.00
24904;DHT22;12960;50.322;11.124;2022-07-18T03:27:34;12.80;46.10
24904;DHT22;12960;50.322;11.124;2022-07-18T03:28:36;12.70;94.20
24904;DHT22;12960;50.322;11.124;2022-07-18T03:29:37;12.70;60.20
24904;DHT22;12960;50.322;11.124;2022-07-18T03:30:38;12.60;68.40
24904;DHT22;12960;50.322;11.124;2022-07-18T03:31:39;12.50;53.60
24904;DHT22;12960;50.322;11.124;2022-07-18T03:32:40;12.50;44.10
24904;DHT22;12960;50.322;11.124;2022-07-18T03:33:41;12.40;46.90
24904;DHT22;12960;50.322;11.124;2022-07-18T03:34:42;12.40;96.90
24904;DHT22;12960;50.322;11.124;2022-07-18T03:35:43;12.30;99.90
24904;DHT22;12960;50.322;11.124;2022-07-18T03:36:44;12.30;99.90
24904;DHT22;12960;50.322;11.124;2022-07-18T03:37:45;12.30;76.90
24904;DHT22;12960;50.322;11.124;2022-07-18T03:38:46;12.30;99.90
24904;DHT22;12960;50.322;11.124;2022-07-18T03:39:47;12.30;65.30
24904;DHT22;12960;50.322;11.124;2022-07-18T03:40:48;12.40;78.00
24904;DHT22;12960;50.322;11.124;2022-07-18T03:41:50;12.40;99.90
24904;DHT22;12960;50.322;11.124;2022-07-18T03:42:52;12.50;99.90
24904;DHT22;12960;50.322;11.124;2022-07-18T03:43:53;12.60;99.90
24904;DHT22;12960;50.322;11.124;2022-07-18T03:44:54;12.50;99.90
24904;DHT22;12960;50.322;11.124;2022-07-18T03:45:56;12.50;99.90
24904;DHT22;12960;50.322;11.124;2022-07-18T03:46:57;12.40;99.90
24904;DHT22;12960;50.322;11.124;2022-07-18T03:47:58;12.40;99.90
24904;DHT22;12960;50.322;11.124;2022-07-18T03:48:59;12.40;99.90
24904;DHT22;12960;50.322;11.124;2022-07-18T03:50:00;12.50;99.90
24904;DHT22;12960;50.322;11.124;2022-07-18T03:51:02;12.50;99.90
24904;DHT22;12960;50.322;11.124;2022-07-18T03:52:03;12.60;99.90
24904;DHT22;12960;50.322;11.124;2022-07-18T03:53:05;12.60;99.90
24904;DHT22;12960;50.322;11.124;2022-07-18T03:54:06;12.60;99.90
24904;DHT22;12960;50.322;11.124;2022-07-18T03:55:09;12.70;75.00
24904;DHT22;12960;50.322;11.124;2022-07-18T03:56:10;12.70;99.90
24904;DHT22;12960;50.322;11.124;2022-07-18T03:57:11;12.70;99.90
24904;DHT22;12960;50.322;11.124;2022-07-18T03:58:12;12.70;99.90
24904;DHT22;12960;50.322;11.124;2022-07-18T03:59:13;12.80;99.90
24904;DHT22;12960;50.322;11.124;2022-07-18T04:00:14;12.80;99.90
24904;DHT22;12960;50.322;11.124;2022-07-18T04:01:15;12.80;99.90
24904;DHT22;12960;50.322;11.124;2022-07-18T04:02:16;12.70;99.90
24904;DHT22;12960;50.322;11.124;2022-07-18T04:03:17;12.70;99.80
24904;DHT22;12960;50.322;11.124;2022-07-18T04:04:18;12.70;99.90
24904;DHT22;12960;50.322;11.124;2022-07-18T04:05:22;12.80;99.90
24904;DHT22;12960;50.322;11.124;2022-07-18T04:06:23;12.80;99.90
24904;DHT22;12960;50.322;11.124;2022-07-18T04:07:24;12.80;99.90
24904;DHT22;12960;50.322;11.124;2022-07-18T04:08:25;12.80;99.90
24904;DHT22;12960;50.322;11.124;2022-07-18T04:09:29;12.90;99.90
24904;DHT22;12960;50.322;11.124;2022-07-18T04:10:30;12.80;99.90
24904;DHT22;12960;50.322;11.124;2022-07-18T04:11:31;12.90;99.90
24904;DHT22;12960;50.322;11.124;2022-07-18T04:12:32;12.90;99.90
24904;DHT22;12960;50.322;11.124;2022-07-18T04:13:33;12.80;99.90
24904;DHT22;12960;50.322;11.124;2022-07-18T04:14:34;12.70;99.90
24904;DHT22;12960;50.322;11.124;2022-07-18T04:15:36;12.70;99.90
24904;DHT22;12960;50.322;11.124;2022-07-18T04:16:37;12.60;99.90
24904;DHT22;12960;50.322;11.124;2022-07-18T04:17:38;12.60;99.90
24904;DHT22;12960;50.322;11.124;2022-07-18T04:18:39;12.50;99.90
24904;DHT22;12960;50.322;11.124;2022-07-18T04:19:41;12.50;99.90
24904;DHT22;12960;50.322;11.124;2022-07-18T04:20:42;12.50;99.90
24904;DHT22;12960;50.322;11.124;2022-07-18T04:21:43;12.50;99.90
24904;DHT22;12960;50.322;11.124;2022-07-18T04:22:45;12.50;99.90
24904;DHT22;12960;50.322;11.124;2022-07-18T04:23:47;12.50;99.90
24904;DHT22;12960;50.322;11.124;2022-07-18T04:24:48;12.40;99.90
24904;DHT22;12960;50.322;11.124;2022-07-18T04:25:49;12.40;99.90
24904;DHT22;12960;50.322;11.124;2022-07-18T04:26:50;12.40;99.90
24904;DHT22;12960;50.322;11.124;2022-07-18T04:27:52;12.40;99.90
24904;DHT22;12960;50.322;11.124;2022-07-18T04:28:53;12.40;99.90
24904;DHT22;12960;50.322;11.124;2022-07-18T04:29:54;12.40;99.90
24904;DHT22;12960;50.322;11.124;2022-07-18T04:30:55;12.40;99.90
24904;DHT22;12960;50.322;11.124;2022-07-18T04:31:56;12.50;99.90
24904;DHT22;12960;50.322;11.124;2022-07-18T04:32:59;12.50;99.90
24904;DHT22;12960;50.322;11.124;2022-07-18T04:34:01;12.50;99.90
24904;DHT22;12960;50.322;11.124;2022-07-18T04:35:02;12.60;99.90
24904;DHT22;12960;50.322;11.124;2022-07-18T04:36:04;12.60;99.90
24904;DHT22;12960;50.322;11.124;2022-07-18T04:37:05;12.60;99.90
24904;DHT22;12960;50.322;11.124;2022-07-18T04:38:08;12.70;99.90
24904;DHT22;12960;50.322;11.124;2022-07-18T04:39:09;12.70;99.90
24904;DHT22;12960;50.322;11.124;2022-07-18T04:40:10;12.70;99.90
24904;DHT22;12960;50.322;11.124;2022-07-18T04:41:11;12.80;99.90
24904;DHT22;12960;50.322;11.124;2022-07-18T04:42:12;12.80;99.90
24904;DHT22;12960;50.322;11.124;2022-07-18T04:43:13;12.80;99.90
24904;DHT22;12960;50.322;11.124;2022-07-18T04:44:14;12.80;99.90
24904;DHT22;12960;50.322;11.124;2022-07-18T04:45:15;12.80;99.90
24904;DHT22;12960;50.322;11.124;2022-07-18T04:46:16;12.90;99.90
24904;DHT22;12960;50.322;11.124;2022-07-18T04:47:18;12.90;99.90
24904;DHT22;12960;50.322;11.124;2022-07-18T04:48:19;13.00;99.90
24904;DHT22;12960;50.322;11.124;2022-07-18T04:49:20;13.00;99.90
24904;DHT22;12960;50.322;11.124;2022-07-18T04:50:21;13.00;99.90
24904;DHT22;12960;50.322;11.124;2022-07-18T04:51:23;13.00;99.90
24904;DHT22;12960;50.322;11.124;2022-07-18T04:52:24;13.10;99.90
24904;DHT22;12960;50.322;11.124;2022-07-18T04:53:25;13.10;99.90
24904;DHT22;12960;50.322;11.124;2022-07-18T04:54:26;13.20;99.90
24904;DHT22;12960;50.322;11.124;2022-07-18T04:55:27;13.20;99.90
24904;DHT22;12960;50.322;11.124;2022-07-18T04:56:29;13.30;99.90
24904;DHT22;12960;50.322;11.124;2022-07-18T04:57:30;13.30;99.90
24904;DHT22;12960;50.322;11.124;2022-07-18T04:58:31;13.40;99.90
24904;DHT22;12960;50.322;11.124;2022-07-18T04:59:32;13.40;99.90
24904;DHT22;12960;50.322;11.124;2022-07-18T05:00:33;13.50;99.90
24904;DHT22;12960;50.322;11.124;2022-07-18T05:01:34;13.50;99.90
24904;DHT22;12960;50.322;11.124;2022-07-18T05:02:45;13.60;99.90
24904;DHT22;12960;50.322;11.124;2022-07-18T05:03:46;13.60;99.90
24904;DHT22;12960;50.322;11.124;2022-07-18T05:04:47;13.60;99.90
24904;DHT22;12960;50.322;11.124;2022-07-18T05:05:48;13.70;99.90
24904;DHT22;12960;50.322;11.124;2022-07-18T05:06:49;13.70;99.90
24904;DHT22;12960;50.322;11.124;2022-07-18T05:07:51;13.70;99.90
24904;DHT22;12960;50.322;11.124;2022-07-18T05:08:52;13.70;99.90
24904;DHT22;12960;50.322;11.124;2022-07-18T05:09:53;13.80;99.90
24904;DHT22;12960;50.322;11.124;2022-07-18T05:10:54;13.80;99.90
24904;DHT22;12960;50.322;11.124;2022-07-18T05:11:55;13.90;99.90
24904;DHT22;12960;50.322;11.124;2022-07-18T05:12:56;13.90;99.90
24904;DHT22;12960;50.322;11.124;2022-07-18T05:13:57;14.00;99.90
24904;DHT22;12960;50.322;11.124;2022-07-18T05:14:58;14.10;99.90
24904;DHT22;12960;50.322;11.124;2022-07-18T05:15:59;14.20;99.90
24904;DHT22;12960;50.322;11.124;2022-07-18T05:17:00;14.30;99.90
24904;DHT22;12960;50.322;11.124;2022-07-18T05:18:02;14.30;99.90
24904;DHT22;12960;50.322;11.124;2022-07-18T05:19:03;14.40;99.90
24904;DHT22;12960;50.322;11.124;2022-07-18T05:20:06;14.50;99.90
24904;DHT22;12960;50.322;11.124;2022-07-18T05:21:07;14.50;99.90
24904;DHT22;12960;50.322;11.124;2022-07-18T05:22:08;14.60;99.90
24904;DHT22;12960;50.322;11.124;2022-07-18T05:23:10;14.70;99.90
24904;DHT22;12960;50.322;11.124;2022-07-18T05:24:13;14.70;99.90
24904;DHT22;12960;50.322;11.124;2022-07-18T05:25:15;14.80;99.90
24904;DHT22;12960;50.322;11.124;2022-07-18T05:26:16;14.90;99.90
24904;DHT22;12960;50.322;11.124;2022-07-18T05:27:17;14.90;99.90
24904;DHT22;12960;50.322;11.124;2022-07-18T05:28:18;14.90;99.90
24904;DHT22;12960;50.322;11.124;2022-07-18T05:29:19;14.90;99.90
24904;DHT22;12960;50.322;11.124;2022-07-18T05:30:21;15.00;89.60
24904;DHT22;12960;50.322;11.124;2022-07-18T05:31:23;15.10;59.80
24904;DHT22;12960;50.322;11.124;2022-07-18T05:32:25;15.10;61.50
24904;DHT22;12960;50.322;11.124;2022-07-18T05:33:26;15.10;97.60
24904;DHT22;12960;50.322;11.124;2022-07-18T05:34:27;15.10;49.40
24904;DHT22;12960;50.322;11.124;2022-07-18T05:35:28;15.20;94.30
24904;DHT22;12960;50.322;11.124;2022-07-18T05:36:29;15.30;91.70
24904;DHT22;12960;50.322;11.124;2022-07-18T05:37:30;15.30;92.40
24904;DHT22;12960;50.322;11.124;2022-07-18T05:38:31;15.40;94.90
24904;DHT22;12960;50.322;11.124;2022-07-18T05:39:33;15.40;87.30
24904;DHT22;12960;50.322;11.124;2022-07-18T05:40:34;15.50;99.90
24904;DHT22;12960;50.322;11.124;2022-07-18T05:41:35;15.60;91.00
24904;DHT22;12960;50.322;11.124;2022-07-18T05:42:36;15.60;24.00
24904;DHT22;12960;50.322;11.124;2022-07-18T05:43:37;15.60;37.70
24904;DHT22;12960;50.322;11.124;2022-07-18T05:44:38;15.60;37.10
24904;DHT22;12960;50.322;11.124;2022-07-18T05:45:39;15.70;53.20
24904;DHT22;12960;50.322;11.124;2022-07-18T05:46:41;15.70;99.90
24904;DHT22;12960;50.322;11.124;2022-07-18T05:47:42;15.70;82.40
24904;DHT22;12960;50.322;11.124;2022-07-18T05:48:43;15.70;54.80
24904;DHT22;12960;50.322;11.124;2022-07-18T05:49:44;15.80;49.30
24904;DHT22;12960;50.322;11.124;2022-07-18T05:50:45;15.80;56.60
24904;DHT22;12960;50.322;11.124;2022-07-18T05:51:46;15.90;77.80
24904;DHT22;12960;50.322;11.124;2022-07-18T05:52:47;16.00;68.10
24904;DHT22;12960;50.322;11.124;2022-07-18T05:53:49;16.00;67.40
24904;DHT22;12960;50.322;11.124;2022-07-18T05:54:50;16.10;91.50
24904;DHT22;12960;50.322;11.124;2022-07-18T05:55:51;16.20;64.60
24904;DHT22;12960;50.322;11.124;2022-07-18T05:56:52;16.30;95.30
24904;DHT22;12960;50.322;11.124;2022-07-18T05:57:53;16.30;27.70
24904;DHT22;12960;50.322;11.124;2022-07-18T05:58:54;16.40;36.10
24904;DHT22;12960;50.322;11.124;2022-07-18T05:59:55;16.40;22.20
24904;DHT22;12960;50.322;11.124;2022-07-18T06:00:56;16.50;10.20
24904;DHT22;12960;50.322;11.124;2022-07-18T06:01:57;16.50;1.00
24904;DHT22;12960;50.322;11.124;2022-07-18T06:02:58;16.50;37.40
24904;DHT22;12960;50.322;11.124;2022-07-18T06:04:01;16.60;5.70
24904;DHT22;12960;50.322;11.124;2022-07-18T06:05:03;16.60;3.30
24904;DHT22;12960;50.322;11.124;2022-07-18T06:06:04;16.60;55.60
24904;DHT22;12960;50.322;11.124;2022-07-18T06:07:05;16.70;16.80
24904;DHT22;12960;50.322;11.124;2022-07-18T06:08:07;16.80;8.60
24904;DHT22;12960;50.322;11.124;2022-07-18T06:09:08;16.90;34.40
24904;DHT22;12960;50.322;11.124;2022-07-18T06:10:09;17.00;39.60
24904;DHT22;12960;50.322;11.124;2022-07-18T06:11:11;17.00;41.80
24904;DHT22;12960;50.322;11.124;2022-07-18T06:12:12;17.00;11.90
24904;DHT22;12960;50.322;11.124;2022-07-18T06:13:13;17.10;21.80
24904;DHT22;12960;50.322;11.124;2022-07-18T06:14:14;17.10;99.90
24904;DHT22;12960;50.322;11.124;2022-07-18T06:15:16;17.10;18.50
24904;DHT22;12960;50.322;11.124;2022-07-18T06:16:17;17.20;87.80
24904;DHT22;12960;50.322;11.124;2022-07-18T06:17:18;17.30;1.00
24904;DHT22;12960;50.322;11.124;2022-07-18T06:18:19;17.30;8.80
24904;DHT22;12960;50.322;11.124;2022-07-18T06:19:20;17.40;1.00
24904;DHT22;12960;50.322;11.124;2022-07-18T06:20:21;17.50;1.00
24904;DHT22;12960;50.322;11.124;2022-07-18T06:21:23;17.60;1.00
24904;DHT22;12960;50.322;11.124;2022-07-18T06:22:24;17.60;1.00
24904;DHT22;12960;50.322;11.124;2022-07-18T06:23:25;17.50;1.00
24904;DHT22;12960;50.322;11.124;2022-07-18T06:24:26;17.60;1.00
24904;DHT22;12960;50.322;11.124;2022-07-18T06:25:27;17.70;1.00
24904;DHT22;12960;50.322;11.124;2022-07-18T06:26:28;17.70;1.00